Terminal Aerodrome Forecast
Issued by NWS

Home | Current Version | Previous Version | Text Only | Print | Product List | Glossary On
Versions: 1 2 3 4 5 6 7 8 9 10 11 12 13 14 15 16 17 18 19 20
000
FTUS43 KGRR 060339 AAB
TAFBTL
TAF AMD
KBTL 060339Z 0604/0624 VRB03KT 6SM HZ SKC
     FM060700 VRB03KT 4SM BR SKC
     FM061000 00000KT 2SM BR SKC
     FM061200 20006KT 4SM BR SKC
     FM061400 20010KT P6SM SKC=

USA.gov is the U.S. government's official web portal to all federal, state and local government web resources and services.